sensor_id;sensor_type;location;lat;lon;timestamp;pressure;altitude;pressure_sealevel;temperature;humidity
35647;BME280;28680;45.642;13.756;2022-10-24T00:00:44;101920.00;;;19.04;100.00
35647;BME280;28680;45.642;13.756;2022-10-24T00:14:06;101914.19;;;18.81;100.00
35647;BME280;28680;45.642;13.756;2022-10-24T00:16:32;101927.34;;;18.82;100.00
35647;BME280;28680;45.642;13.756;2022-10-24T00:19:00;101918.97;;;18.77;100.00
35647;BME280;28680;45.642;13.756;2022-10-24T00:25:10;101900.81;;;19.00;100.00
35647;BME280;28680;45.642;13.756;2022-10-24T00:27:45;101901.66;;;19.01;100.00
35647;BME280;28680;45.642;13.756;2022-10-24T00:31:07;101911.00;;;19.05;100.00
35647;BME280;28680;45.642;13.756;2022-10-24T00:33:33;101911.88;;;19.05;100.00
35647;BME280;28680;45.642;13.756;2022-10-24T00:35:59;101902.06;;;19.06;100.00
35647;BME280;28680;45.642;13.756;2022-10-24T00:38:25;101902.06;;;19.06;100.00
35647;BME280;28680;45.642;13.756;2022-10-24T00:40:51;101900.09;;;19.08;100.00
35647;BME280;28680;45.642;13.756;2022-10-24T00:43:24;101897.44;;;19.08;100.00
35647;BME280;28680;45.642;13.756;2022-10-24T00:45:58;101888.63;;;19.07;100.00
35647;BME280;28680;45.642;13.756;2022-10-24T00:48:43;101886.09;;;19.06;100.00
35647;BME280;28680;45.642;13.756;2022-10-24T00:51:20;101887.75;;;19.07;100.00
35647;BME280;28680;45.642;13.756;2022-10-24T00:53:55;101887.06;;;19.05;100.00
35647;BME280;28680;45.642;13.756;2022-10-24T00:56:27;101881.19;;;19.01;100.00
35647;BME280;28680;45.642;13.756;2022-10-24T00:58:56;101876.06;;;19.00;100.00
35647;BME280;28680;45.642;13.756;2022-10-24T01:01:24;101885.69;;;19.01;100.00
35647;BME280;28680;45.642;13.756;2022-10-24T01:03:50;101884.88;;;19.00;100.00
35647;BME280;28680;45.642;13.756;2022-10-24T01:12:17;101880.09;;;19.04;100.00
35647;BME280;28680;45.642;13.756;2022-10-24T01:18:00;101878.13;;;19.06;100.00
35647;BME280;28680;45.642;13.756;2022-10-24T01:29:43;101883.44;;;19.06;100.00
35647;BME280;28680;45.642;13.756;2022-10-24T01:32:28;101887.53;;;19.00;100.00
35647;BME280;28680;45.642;13.756;2022-10-24T01:40:50;101900.28;;;18.97;100.00
35647;BME280;28680;45.642;13.756;2022-10-24T01:43:29;101905.06;;;18.93;100.00
35647;BME280;28680;45.642;13.756;2022-10-24T01:46:17;101901.69;;;18.91;100.00
35647;BME280;28680;45.642;13.756;2022-10-24T01:48:54;101900.47;;;18.85;100.00
35647;BME280;28680;45.642;13.756;2022-10-24T01:51:25;101894.81;;;18.98;100.00
35647;BME280;28680;45.642;13.756;2022-10-24T01:53:54;101871.66;;;19.08;100.00
35647;BME280;28680;45.642;13.756;2022-10-24T01:56:24;101869.25;;;19.15;100.00
35647;BME280;28680;45.642;13.756;2022-10-24T01:58:50;101866.13;;;19.20;100.00
35647;BME280;28680;45.642;13.756;2022-10-24T02:01:21;101863.47;;;19.20;100.00
35647;BME280;28680;45.642;13.756;2022-10-24T02:03:59;101858.44;;;19.17;100.00
35647;BME280;28680;45.642;13.756;2022-10-24T02:06:34;101857.44;;;19.18;100.00
35647;BME280;28680;45.642;13.756;2022-10-24T02:09:15;101853.28;;;19.15;100.00
35647;BME280;28680;45.642;13.756;2022-10-24T02:15:03;101853.97;;;19.17;100.00
35647;BME280;28680;45.642;13.756;2022-10-24T02:17:35;101856.75;;;19.16;100.00
35647;BME280;28680;45.642;13.756;2022-10-24T02:20:02;101854.41;;;19.13;100.00
35647;BME280;28680;45.642;13.756;2022-10-24T02:22:49;101855.06;;;19.15;100.00
35647;BME280;28680;45.642;13.756;2022-10-24T02:25:25;101853.56;;;19.12;100.00
35647;BME280;28680;45.642;13.756;2022-10-24T02:27:59;101854.25;;;19.14;100.00
35647;BME280;28680;45.642;13.756;2022-10-24T02:30:29;101845.59;;;19.12;100.00
35647;BME280;28680;45.642;13.756;2022-10-24T02:32:59;101844.22;;;19.08;100.00
35647;BME280;28680;45.642;13.756;2022-10-24T02:35:29;101847.00;;;19.06;100.00
35647;BME280;28680;45.642;13.756;2022-10-24T02:38:13;101850.38;;;19.08;100.00
35647;BME280;28680;45.642;13.756;2022-10-24T02:40:41;101850.38;;;19.08;100.00
35647;BME280;28680;45.642;13.756;2022-10-24T02:43:10;101841.97;;;19.03;100.00
35647;BME280;28680;45.642;13.756;2022-10-24T02:45:38;101849.59;;;18.98;100.00
35647;BME280;28680;45.642;13.756;2022-10-24T02:48:08;101847.91;;;18.97;100.00
35647;BME280;28680;45.642;13.756;2022-10-24T02:50:38;101846.25;;;18.96;100.00
35647;BME280;28680;45.642;13.756;2022-10-24T02:53:11;101832.09;;;18.96;100.00
35647;BME280;28680;45.642;13.756;2022-10-24T02:55:37;101837.41;;;18.96;100.00
35647;BME280;28680;45.642;13.756;2022-10-24T02:58:03;101835.75;;;18.95;100.00
35647;BME280;28680;45.642;13.756;2022-10-24T03:00:29;101833.91;;;18.95;100.00
35647;BME280;28680;45.642;13.756;2022-10-24T03:02:55;101835.06;;;18.93;100.00
35647;BME280;28680;45.642;13.756;2022-10-24T03:05:21;101833.84;;;18.87;100.00
35647;BME280;28680;45.642;13.756;2022-10-24T03:07:47;101841.41;;;18.82;100.00
35647;BME280;28680;45.642;13.756;2022-10-24T03:10:13;101852.28;;;18.79;100.00
35647;BME280;28680;45.642;13.756;2022-10-24T03:12:39;101852.28;;;18.79;100.00
35647;BME280;28680;45.642;13.756;2022-10-24T03:15:05;101850.78;;;18.76;100.00
35647;BME280;28680;45.642;13.756;2022-10-24T03:17:31;101844.50;;;18.77;100.00
35647;BME280;28680;45.642;13.756;2022-10-24T03:19:57;101847.56;;;18.82;100.00
35647;BME280;28680;45.642;13.756;2022-10-24T03:22:23;101853.97;;;18.80;100.00
35647;BME280;28680;45.642;13.756;2022-10-24T03:24:49;101858.47;;;18.79;100.00
35647;BME280;28680;45.642;13.756;2022-10-24T03:27:15;101852.19;;;18.80;100.00
35647;BME280;28680;45.642;13.756;2022-10-24T03:29:40;101860.03;;;18.82;100.00
35647;BME280;28680;45.642;13.756;2022-10-24T03:32:06;101855.53;;;18.82;100.00
35647;BME280;28680;45.642;13.756;2022-10-24T03:34:32;101849.94;;;18.85;100.00
35647;BME280;28680;45.642;13.756;2022-10-24T03:36:58;101836.34;;;18.88;100.00
35647;BME280;28680;45.642;13.756;2022-10-24T03:39:24;101834.91;;;18.94;100.00
35647;BME280;28680;45.642;13.756;2022-10-24T03:41:50;101828.75;;;18.94;100.00
35647;BME280;28680;45.642;13.756;2022-10-24T03:44:16;101841.06;;;18.95;100.00
35647;BME280;28680;45.642;13.756;2022-10-24T03:46:42;101839.63;;;19.00;100.00
35647;BME280;28680;45.642;13.756;2022-10-24T03:49:08;101833.31;;;19.01;100.00
35647;BME280;28680;45.642;13.756;2022-10-24T03:51:34;101831.66;;;19.00;100.00
35647;BME280;28680;45.642;13.756;2022-10-24T03:54:00;101836.84;;;19.02;100.00
35647;BME280;28680;45.642;13.756;2022-10-24T03:56:26;101837.06;;;19.08;100.00
35647;BME280;28680;45.642;13.756;2022-10-24T03:59:02;101831.66;;;19.18;100.00
35647;BME280;28680;45.642;13.756;2022-10-24T04:01:29;101833.66;;;19.16;100.00
35647;BME280;28680;45.642;13.756;2022-10-24T04:03:55;101830.16;;;19.16;100.00
35647;BME280;28680;45.642;13.756;2022-10-24T04:06:21;101835.19;;;19.19;100.00
35647;BME280;28680;45.642;13.756;2022-10-24T04:08:46;101822.72;;;19.19;100.00
35647;BME280;28680;45.642;13.756;2022-10-24T04:11:12;101820.06;;;19.19;100.00
35647;BME280;28680;45.642;13.756;2022-10-24T04:13:38;101828.88;;;19.20;100.00
35647;BME280;28680;45.642;13.756;2022-10-24T04:16:06;101832.06;;;19.23;100.00
35647;BME280;28680;45.642;13.756;2022-10-24T04:18:32;101826.06;;;19.21;100.00
35647;BME280;28680;45.642;13.756;2022-10-24T04:20:58;101821.41;;;19.23;100.00
35647;BME280;28680;45.642;13.756;2022-10-24T04:23:24;101830.38;;;19.22;100.00
35647;BME280;28680;45.642;13.756;2022-10-24T04:25:51;101835.69;;;19.22;100.00
35647;BME280;28680;45.642;13.756;2022-10-24T04:28:17;101833.34;;;19.19;100.00
35647;BME280;28680;45.642;13.756;2022-10-24T04:30:43;101835.88;;;19.21;100.00
35647;BME280;28680;45.642;13.756;2022-10-24T04:33:09;101848.31;;;19.20;100.00
35647;BME280;28680;45.642;13.756;2022-10-24T04:35:35;101849.31;;;19.19;100.00
35647;BME280;28680;45.642;13.756;2022-10-24T04:38:01;101851.84;;;19.21;100.00
35647;BME280;28680;45.642;13.756;2022-10-24T04:40:27;101849.00;;;19.22;100.00
35647;BME280;28680;45.642;13.756;2022-10-24T04:42:53;101851.66;;;19.22;100.00
35647;BME280;28680;45.642;13.756;2022-10-24T04:45:19;101849.00;;;19.22;100.00
35647;BME280;28680;45.642;13.756;2022-10-24T04:47:45;101853.50;;;19.22;100.00
35647;BME280;28680;45.642;13.756;2022-10-24T04:50:11;101864.16;;;19.22;100.00
35647;BME280;28680;45.642;13.756;2022-10-24T04:52:36;101855.63;;;19.18;100.00
35647;BME280;28680;45.642;13.756;2022-10-24T04:55:03;101861.63;;;19.20;100.00
35647;BME280;28680;45.642;13.756;2022-10-24T04:57:28;101855.72;;;19.26;100.00
35647;BME280;28680;45.642;13.756;2022-10-24T04:59:54;101845.91;;;19.27;100.00
35647;BME280;28680;45.642;13.756;2022-10-24T05:02:20;101847.88;;;19.25;100.00
35647;BME280;28680;45.642;13.756;2022-10-24T05:04:46;101847.22;;;19.23;100.00
35647;BME280;28680;45.642;13.756;2022-10-24T05:07:12;101850.69;;;19.23;100.00
35647;BME280;28680;45.642;13.756;2022-10-24T05:09:37;101860.81;;;19.20;100.00
35647;BME280;28680;45.642;13.756;2022-10-24T05:12:04;101863.03;;;19.24;100.00
35647;BME280;28680;45.642;13.756;2022-10-24T05:14:30;101860.19;;;19.26;100.00
35647;BME280;28680;45.642;13.756;2022-10-24T05:16:56;101860.03;;;19.27;100.00
35647;BME280;28680;45.642;13.756;2022-10-24T05:19:21;101855.19;;;19.23;100.00
35647;BME280;28680;45.642;13.756;2022-10-24T05:21:47;101861.34;;;19.23;100.00
35647;BME280;28680;45.642;13.756;2022-10-24T05:24:13;101857.72;;;19.24;100.00
35647;BME280;28680;45.642;13.756;2022-10-24T05:26:39;101864.69;;;19.25;100.00
35647;BME280;28680;45.642;13.756;2022-10-24T05:29:05;101868.19;;;19.26;100.00
35647;BME280;28680;45.642;13.756;2022-10-24T05:31:30;101872.66;;;19.25;100.00
35647;BME280;28680;45.642;13.756;2022-10-24T05:33:56;101870.69;;;19.27;100.00
35647;BME280;28680;45.642;13.756;2022-10-24T05:36:22;101863.53;;;19.28;100.00
35647;BME280;28680;45.642;13.756;2022-10-24T05:38:50;101866.06;;;19.29;100.00
35647;BME280;28680;45.642;13.756;2022-10-24T05:41:16;101863.41;;;19.29;100.00
35647;BME280;28680;45.642;13.756;2022-10-24T05:43:41;101865.09;;;19.31;100.00
35647;BME280;28680;45.642;13.756;2022-10-24T05:46:07;101872.38;;;19.28;100.00
35647;BME280;28680;45.642;13.756;2022-10-24T05:48:35;101864.25;;;19.30;100.00
35647;BME280;28680;45.642;13.756;2022-10-24T05:51:01;101872.25;;;19.30;100.00
35647;BME280;28680;45.642;13.756;2022-10-24T05:53:27;101866.06;;;19.29;100.00
35647;BME280;28680;45.642;13.756;2022-10-24T05:55:52;101866.06;;;19.29;100.00
35647;BME280;28680;45.642;13.756;2022-10-24T05:58:18;101866.06;;;19.29;100.00
35647;BME280;28680;45.642;13.756;2022-10-24T06:00:49;101859.91;;;19.29;100.00
35647;BME280;28680;45.642;13.756;2022-10-24T06:03:15;101869.72;;;19.28;100.00
35647;BME280;28680;45.642;13.756;2022-10-24T06:05:41;101875.88;;;19.29;100.00
35647;BME280;28680;45.642;13.756;2022-10-24T06:08:08;101876.56;;;19.31;100.00
35647;BME280;28680;45.642;13.756;2022-10-24T06:10:34;101872.06;;;19.32;100.00
35647;BME280;28680;45.642;13.756;2022-10-24T06:13:01;101873.47;;;19.36;100.00
35647;BME280;28680;45.642;13.756;2022-10-24T06:15:27;101877.94;;;19.35;100.00
35647;BME280;28680;45.642;13.756;2022-10-24T06:17:52;101880.31;;;19.38;100.00
35647;BME280;28680;45.642;13.756;2022-10-24T06:20:18;101873.59;;;19.34;100.00
35647;BME280;28680;45.642;13.756;2022-10-24T06:22:44;101881.44;;;19.36;100.00
35647;BME280;28680;45.642;13.756;2022-10-24T06:25:12;101877.50;;;19.40;100.00
35647;BME280;28680;45.642;13.756;2022-10-24T06:27:39;101876.50;;;19.41;100.00
35647;BME280;28680;45.642;13.756;2022-10-24T06:30:06;101882.97;;;19.38;100.00
35647;BME280;28680;45.642;13.756;2022-10-24T06:32:32;101877.63;;;19.38;100.00
35647;BME280;28680;45.642;13.756;2022-10-24T06:34:58;101870.34;;;19.40;100.00
35647;BME280;28680;45.642;13.756;2022-10-24T06:37:24;101876.50;;;19.41;100.00
35647;BME280;28680;45.642;13.756;2022-10-24T06:39:49;101868.50;;;19.41;100.00
35647;BME280;28680;45.642;13.756;2022-10-24T06:42:15;101866.84;;;19.40;100.00
35647;BME280;28680;45.642;13.756;2022-10-24T06:44:41;101865.84;;;19.41;100.00
35647;BME280;28680;45.642;13.756;2022-10-24T06:47:07;101870.34;;;19.40;100.00
35647;BME280;28680;45.642;13.756;2022-10-24T06:49:33;101876.19;;;19.44;100.00
35647;BME280;28680;45.642;13.756;2022-10-24T06:51:59;101873.94;;;19.49;100.00
35647;BME280;28680;45.642;13.756;2022-10-24T06:54:24;101865.63;;;19.52;100.00
35647;BME280;28680;45.642;13.756;2022-10-24T06:56:50;101868.69;;;19.57;100.00
35647;BME280;28680;45.642;13.756;2022-10-24T06:59:17;101872.84;;;19.60;100.00
35647;BME280;28680;45.642;13.756;2022-10-24T07:01:44;101871.19;;;19.59;100.00
35647;BME280;28680;45.642;13.756;2022-10-24T07:04:18;101880.25;;;19.66;100.00
35647;BME280;28680;45.642;13.756;2022-10-24T07:06:47;101880.06;;;19.67;100.00
35647;BME280;28680;45.642;13.756;2022-10-24T07:09:13;101872.41;;;19.64;100.00
35647;BME280;28680;45.642;13.756;2022-10-24T07:11:38;101872.94;;;19.68;100.00
35647;BME280;28680;45.642;13.756;2022-10-24T07:14:04;101870.81;;;19.72;100.00
35647;BME280;28680;45.642;13.756;2022-10-24T07:16:31;101863.69;;;19.72;100.00
35647;BME280;28680;45.642;13.756;2022-10-24T07:18:56;101872.06;;;19.77;100.00
35647;BME280;28680;45.642;13.756;2022-10-24T07:21:27;101874.50;;;19.89;100.00
35647;BME280;28680;45.642;13.756;2022-10-24T07:23:54;101871.22;;;19.95;100.00
35647;BME280;28680;45.642;13.756;2022-10-24T07:26:21;101870.06;;;19.97;100.00
35647;BME280;28680;45.642;13.756;2022-10-24T07:28:48;101872.94;;;20.04;100.00
35647;BME280;28680;45.642;13.756;2022-10-24T07:31:20;101874.84;;;20.12;100.00
35647;BME280;28680;45.642;13.756;2022-10-24T07:33:46;101862.09;;;20.05;100.00
35647;BME280;28680;45.642;13.756;2022-10-24T07:36:22;101857.84;;;20.13;100.00
35647;BME280;28680;45.642;13.756;2022-10-24T07:38:50;101839.69;;;20.16;100.00
35647;BME280;28680;45.642;13.756;2022-10-24T07:41:17;101847.25;;;20.21;100.00
35647;BME280;28680;45.642;13.756;2022-10-24T07:43:43;101843.13;;;20.27;100.00
35647;BME280;28680;45.642;13.756;2022-10-24T07:46:13;101841.06;;;20.47;100.00
35647;BME280;28680;45.642;13.756;2022-10-24T07:48:39;101838.44;;;20.55;100.00
35647;BME280;28680;45.642;13.756;2022-10-24T07:51:10;101830.16;;;20.66;100.00
35647;BME280;28680;45.642;13.756;2022-10-24T07:53:36;101828.06;;;20.78;100.00
35647;BME280;28680;45.642;13.756;2022-10-24T07:56:03;101823.78;;;20.93;100.00
35647;BME280;28680;45.642;13.756;2022-10-24T07:58:34;101812.78;;;20.96;100.00
35647;BME280;28680;45.642;13.756;2022-10-24T08:01:22;101806.66;;;21.12;100.00
35647;BME280;28680;45.642;13.756;2022-10-24T08:03:48;101809.47;;;21.19;100.00
35647;BME280;28680;45.642;13.756;2022-10-24T08:06:19;101808.66;;;21.18;100.00
35647;BME280;28680;45.642;13.756;2022-10-24T08:08:45;101799.00;;;21.34;100.00
35647;BME280;28680;45.642;13.756;2022-10-24T08:11:16;101793.72;;;21.50;100.00
35647;BME280;28680;45.642;13.756;2022-10-24T08:13:43;101803.41;;;21.59;100.00
35647;BME280;28680;45.642;13.756;2022-10-24T08:16:13;101798.53;;;21.88;100.00
35647;BME280;28680;45.642;13.756;2022-10-24T08:18:39;101799.03;;;21.75;100.00
35647;BME280;28680;45.642;13.756;2022-10-24T08:21:09;101790.34;;;21.81;100.00
35647;BME280;28680;45.642;13.756;2022-10-24T08:23:39;101795.16;;;22.02;100.00
35647;BME280;28680;45.642;13.756;2022-10-24T08:26:10;101782.47;;;22.04;100.00
35647;BME280;28680;45.642;13.756;2022-10-24T08:28:37;101786.63;;;22.15;100.00
35647;BME280;28680;45.642;13.756;2022-10-24T08:31:07;101791.97;;;22.15;100.00
35647;BME280;28680;45.642;13.756;2022-10-24T08:33:34;101770.38;;;22.25;100.00
35647;BME280;28680;45.642;13.756;2022-10-24T08:36:13;101779.81;;;22.04;100.00
35647;BME280;28680;45.642;13.756;2022-10-24T08:38:43;101789.84;;;21.86;100.00
35647;BME280;28680;45.642;13.756;2022-10-24T08:41:59;101790.66;;;21.94;100.00
35647;BME280;28680;45.642;13.756;2022-10-24T08:44:18;101796.69;;;21.88;100.00
35647;BME280;28680;45.642;13.756;2022-10-24T08:47:06;101793.66;;;21.99;100.00
35647;BME280;28680;45.642;13.756;2022-10-24T08:50:23;101796.72;;;21.80;100.00
35647;BME280;28680;45.642;13.756;2022-10-24T08:53:13;101789.63;;;22.28;100.00
35647;BME280;28680;45.642;13.756;2022-10-24T08:55:49;101790.06;;;22.48;100.00
35647;BME280;28680;45.642;13.756;2022-10-24T08:58:26;101785.59;;;22.32;100.00
35647;BME280;28680;45.642;13.756;2022-10-24T09:00:58;101788.78;;;22.11;100.00
35647;BME280;28680;45.642;13.756;2022-10-24T09:03:47;101787.63;;;22.06;100.00
35647;BME280;28680;45.642;13.756;2022-10-24T09:06:29;101786.13;;;22.19;100.00
35647;BME280;28680;45.642;13.756;2022-10-24T09:09:03;101797.31;;;22.15;100.00
35647;BME280;28680;45.642;13.756;2022-10-24T09:11:52;101796.09;;;22.42;100.00
35647;BME280;28680;45.642;13.756;2022-10-24T09:14:40;101789.59;;;22.36;100.00
35647;BME280;28680;45.642;13.756;2022-10-24T09:17:29;101796.59;;;22.46;100.00
35647;BME280;28680;45.642;13.756;2022-10-24T09:22:33;101781.91;;;22.33;100.00
35647;BME280;28680;45.642;13.756;2022-10-24T09:25:07;101786.25;;;22.74;100.00
35647;BME280;28680;45.642;13.756;2022-10-24T09:27:41;101783.28;;;22.69;100.00
35647;BME280;28680;45.642;13.756;2022-10-24T09:30:19;101778.22;;;22.43;100.00
35647;BME280;28680;45.642;13.756;2022-10-24T09:32:47;101777.91;;;22.21;100.00
35647;BME280;28680;45.642;13.756;2022-10-24T09:35:25;101780.56;;;22.21;100.00
35647;BME280;28680;45.642;13.756;2022-10-24T09:37:57;101779.63;;;22.06;100.00
35647;BME280;28680;45.642;13.756;2022-10-24T09:40:32;101770.06;;;22.11;100.00
35647;BME280;28680;45.642;13.756;2022-10-24T09:43:15;101781.81;;;21.94;100.00
35647;BME280;28680;45.642;13.756;2022-10-24T09:45:50;101777.66;;;21.83;100.00
35647;BME280;28680;45.642;13.756;2022-10-24T09:48:33;101770.44;;;22.08;100.00
35647;BME280;28680;45.642;13.756;2022-10-24T09:51:01;101778.38;;;22.25;100.00
35647;BME280;28680;45.642;13.756;2022-10-24T09:53:36;101776.75;;;22.15;100.00
35647;BME280;28680;45.642;13.756;2022-10-24T09:56:12;101785.00;;;21.97;100.00
35647;BME280;28680;45.642;13.756;2022-10-24T09:58:39;101778.94;;;22.04;100.00
35647;BME280;28680;45.642;13.756;2022-10-24T10:03:39;101777.16;;;21.71;100.00
35647;BME280;28680;45.642;13.756;2022-10-24T10:06:18;101778.34;;;21.77;100.00
35647;BME280;28680;45.642;13.756;2022-10-24T10:08:50;101776.69;;;21.76;100.00
35647;BME280;28680;45.642;13.756;2022-10-24T10:11:31;101767.31;;;21.72;100.00
35647;BME280;28680;45.642;13.756;2022-10-24T10:14:00;101776.81;;;21.83;100.00
35647;BME280;28680;45.642;13.756;2022-10-24T10:16:33;101768.97;;;21.81;100.00
35647;BME280;28680;45.642;13.756;2022-10-24T10:19:19;101772.19;;;21.68;100.00
35647;BME280;28680;45.642;13.756;2022-10-24T10:21:56;101770.16;;;21.54;100.00
35647;BME280;28680;45.642;13.756;2022-10-24T10:24:43;101767.19;;;21.57;100.00
35647;BME280;28680;45.642;13.756;2022-10-24T10:41:38;101757.16;;;21.59;100.00
35647;BME280;28680;45.642;13.756;2022-10-24T10:50:01;101745.47;;;21.60;100.00
35647;BME280;28680;45.642;13.756;2022-10-24T10:52:37;101746.63;;;21.66;100.00
35647;BME280;28680;45.642;13.756;2022-10-24T10:56:00;101751.63;;;21.77;100.00
35647;BME280;28680;45.642;13.756;2022-10-24T11:01:47;101726.75;;;21.68;100.00
35647;BME280;28680;45.642;13.756;2022-10-24T11:04:46;101721.19;;;21.86;100.00
35647;BME280;28680;45.642;13.756;2022-10-24T11:10:11;101715.28;;;22.07;100.00
35647;BME280;28680;45.642;13.756;2022-10-24T11:12:41;101710.78;;;22.08;100.00
35647;BME280;28680;45.642;13.756;2022-10-24T11:15:30;101708.59;;;22.11;100.00
35647;BME280;28680;45.642;13.756;2022-10-24T11:18:14;101707.44;;;22.06;100.00
35647;BME280;28680;45.642;13.756;2022-10-24T11:21:03;101708.25;;;22.14;100.00
35647;BME280;28680;45.642;13.756;2022-10-24T11:23:52;101689.16;;;22.65;100.00
35647;BME280;28680;45.642;13.756;2022-10-24T11:29:32;101677.38;;;23.21;100.00
35647;BME280;28680;45.642;13.756;2022-10-24T11:32:27;101675.53;;;23.21;100.00
35647;BME280;28680;45.642;13.756;2022-10-24T11:35:26;101675.09;;;23.32;100.00
35647;BME280;28680;45.642;13.756;2022-10-24T11:38:17;101683.47;;;22.91;100.00
35647;BME280;28680;45.642;13.756;2022-10-24T11:40:49;101680.50;;;22.55;100.00
35647;BME280;28680;45.642;13.756;2022-10-24T11:43:40;101669.28;;;22.60;100.00
35647;BME280;28680;45.642;13.756;2022-10-24T11:46:33;101676.94;;;22.63;100.00
35647;BME280;28680;45.642;13.756;2022-10-24T11:49:30;101671.06;;;22.44;100.00
35647;BME280;28680;45.642;13.756;2022-10-24T11:52:25;101674.09;;;22.25;100.00
35647;BME280;28680;45.642;13.756;2022-10-24T11:57:52;101660.31;;;22.13;100.00
35647;BME280;28680;45.642;13.756;2022-10-24T12:00:28;101665.88;;;22.03;100.00
35647;BME280;28680;45.642;13.756;2022-10-24T12:06:37;101657.03;;;21.94;100.00
35647;BME280;28680;45.642;13.756;2022-10-24T12:12:23;101653.41;;;21.87;100.00
35647;BME280;28680;45.642;13.756;2022-10-24T12:18:05;101658.25;;;21.75;100.00
35647;BME280;28680;45.642;13.756;2022-10-24T12:20:33;101662.66;;;21.68;100.00
35647;BME280;28680;45.642;13.756;2022-10-24T12:23:01;101662.66;;;21.68;100.00
35647;BME280;28680;45.642;13.756;2022-10-24T12:25:36;101653.94;;;21.66;100.00
35647;BME280;28680;45.642;13.756;2022-10-24T12:28:21;101645.94;;;21.66;100.00
35647;BME280;28680;45.642;13.756;2022-10-24T12:31:10;101651.28;;;21.66;100.00
35647;BME280;28680;45.642;13.756;2022-10-24T12:33:38;101637.13;;;21.57;100.00
35647;BME280;28680;45.642;13.756;2022-10-24T12:36:04;101632.59;;;21.58;100.00
35647;BME280;28680;45.642;13.756;2022-10-24T12:43:49;101631.28;;;21.54;100.00
35647;BME280;28680;45.642;13.756;2022-10-24T12:48:43;101623.44;;;21.52;100.00
35647;BME280;28680;45.642;13.756;2022-10-24T12:59:53;101595.94;;;21.91;100.00
35647;BME280;28680;45.642;13.756;2022-10-24T13:02:35;101595.28;;;21.89;100.00
35647;BME280;28680;45.642;13.756;2022-10-24T13:17:32;101591.91;;;21.95;100.00
35647;BME280;28680;45.642;13.756;2022-10-24T13:27:41;101583.94;;;21.79;100.00
35647;BME280;28680;45.642;13.756;2022-10-24T13:30:36;101575.81;;;21.72;100.00
35647;BME280;28680;45.642;13.756;2022-10-24T13:41:49;101556.84;;;21.90;100.00
35647;BME280;28680;45.642;13.756;2022-10-24T13:44:46;101559.38;;;21.84;100.00
35647;BME280;28680;45.642;13.756;2022-10-24T13:47:39;101562.00;;;21.92;100.00
35647;BME280;28680;45.642;13.756;2022-10-24T13:50:31;101561.34;;;21.90;100.00
35647;BME280;28680;45.642;13.756;2022-10-24T13:53:34;101560.34;;;21.91;100.00
35647;BME280;28680;45.642;13.756;2022-10-24T13:56:18;101556.28;;;22.03;100.00
35647;BME280;28680;45.642;13.756;2022-10-24T13:58:45;101558.38;;;21.85;100.00
35647;BME280;28680;45.642;13.756;2022-10-24T14:01:25;101555.31;;;21.96;100.00
35647;BME280;28680;45.642;13.756;2022-10-24T14:03:54;101555.66;;;21.93;100.00
35647;BME280;28680;45.642;13.756;2022-10-24T14:06:29;101560.69;;;21.88;100.00
35647;BME280;28680;45.642;13.756;2022-10-24T14:09:01;101566.38;;;21.85;100.00
35647;BME280;28680;45.642;13.756;2022-10-24T14:11:29;101563.53;;;21.86;100.00
35647;BME280;28680;45.642;13.756;2022-10-24T14:14:00;101551.88;;;21.87;100.00
35647;BME280;28680;45.642;13.756;2022-10-24T14:16:32;101555.75;;;21.76;100.00
35647;BME280;28680;45.642;13.756;2022-10-24T14:19:25;101552.31;;;21.59;100.00
35647;BME280;28680;45.642;13.756;2022-10-24T14:21:51;101548.16;;;21.57;100.00
35647;BME280;28680;45.642;13.756;2022-10-24T14:24:24;101548.97;;;21.57;100.00
35647;BME280;28680;45.642;13.756;2022-10-24T14:26:53;101539.13;;;21.58;100.00
35647;BME280;28680;45.642;13.756;2022-10-24T14:29:24;101539.13;;;21.58;100.00
35647;BME280;28680;45.642;13.756;2022-10-24T14:32:12;101531.25;;;21.65;100.00
35647;BME280;28680;45.642;13.756;2022-10-24T14:34:38;101529.41;;;21.65;100.00
35647;BME280;28680;45.642;13.756;2022-10-24T14:37:11;101525.44;;;21.61;100.00
35647;BME280;28680;45.642;13.756;2022-10-24T14:39:40;101521.09;;;21.60;100.00
35647;BME280;28680;45.642;13.756;2022-10-24T14:42:13;101506.03;;;21.67;100.00
35647;BME280;28680;45.642;13.756;2022-10-24T14:44:41;101515.66;;;21.76;100.00
35647;BME280;28680;45.642;13.756;2022-10-24T14:47:20;101504.28;;;21.83;100.00
35647;BME280;28680;45.642;13.756;2022-10-24T14:49:48;101508.72;;;21.90;100.00
35647;BME280;28680;45.642;13.756;2022-10-24T14:52:18;101500.59;;;21.84;100.00
35647;BME280;28680;45.642;13.756;2022-10-24T14:55:15;101499.88;;;21.67;100.00
35647;BME280;28680;45.642;13.756;2022-10-24T14:57:48;101496.38;;;21.58;100.00
35647;BME280;28680;45.642;13.756;2022-10-24T15:00:23;101495.25;;;21.52;100.00
35647;BME280;28680;45.642;13.756;2022-10-24T15:02:52;101502.44;;;21.52;100.00
35647;BME280;28680;45.642;13.756;2022-10-24T15:07:58;101518.41;;;21.60;100.00
35647;BME280;28680;45.642;13.756;2022-10-24T15:10:32;101510.78;;;21.49;100.00
35647;BME280;28680;45.642;13.756;2022-10-24T15:18:26;101493.78;;;21.33;100.00